sensor_id;sensor_type;location;lat;lon;timestamp;P1;durP1;ratioP1;P2;durP2;ratioP2
68384;SDS011;55336;43.062;25.626;2022-08-19T00:01:38;2.33;;;2.13;;
68384;SDS011;55336;43.062;25.626;2022-08-19T00:04:06;3.50;;;3.22;;
68384;SDS011;55336;43.062;25.626;2022-08-19T00:06:34;3.33;;;3.03;;
68384;SDS011;55336;43.062;25.626;2022-08-19T00:09:01;5.90;;;3.30;;
68384;SDS011;55336;43.062;25.626;2022-08-19T00:11:29;4.00;;;3.60;;
68384;SDS011;55336;43.062;25.626;2022-08-19T00:13:55;4.18;;;3.40;;
68384;SDS011;55336;43.062;25.626;2022-08-19T00:16:22;3.88;;;3.20;;
68384;SDS011;55336;43.062;25.626;2022-08-19T00:18:49;3.55;;;3.25;;
68384;SDS011;55336;43.062;25.626;2022-08-19T00:21:15;4.60;;;3.30;;
68384;SDS011;55336;43.062;25.626;2022-08-19T00:26:08;4.22;;;3.83;;
68384;SDS011;55336;43.062;25.626;2022-08-19T00:28:35;5.80;;;3.47;;
68384;SDS011;55336;43.062;25.626;2022-08-19T00:31:05;2.95;;;2.72;;
68384;SDS011;55336;43.062;25.626;2022-08-19T00:33:32;4.30;;;3.90;;
68384;SDS011;55336;43.062;25.626;2022-08-19T00:35:59;4.93;;;3.28;;
68384;SDS011;55336;43.062;25.626;2022-08-19T00:38:25;4.95;;;3.33;;
68384;SDS011;55336;43.062;25.626;2022-08-19T00:40:51;2.92;;;2.58;;
68384;SDS011;55336;43.062;25.626;2022-08-19T00:43:18;3.65;;;3.05;;
68384;SDS011;55336;43.062;25.626;2022-08-19T00:45:47;5.85;;;3.40;;
68384;SDS011;55336;43.062;25.626;2022-08-19T00:50:40;2.90;;;2.20;;
68384;SDS011;55336;43.062;25.626;2022-08-19T00:53:08;3.55;;;2.97;;
68384;SDS011;55336;43.062;25.626;2022-08-19T00:55:35;4.70;;;3.72;;
68384;SDS011;55336;43.062;25.626;2022-08-19T00:58:06;3.67;;;3.13;;
68384;SDS011;55336;43.062;25.626;2022-08-19T01:00:35;3.65;;;3.35;;
68384;SDS011;55336;43.062;25.626;2022-08-19T01:03:06;3.97;;;3.38;;
68384;SDS011;55336;43.062;25.626;2022-08-19T01:05:34;3.67;;;3.22;;
68384;SDS011;55336;43.062;25.626;2022-08-19T01:08:02;3.47;;;3.17;;
68384;SDS011;55336;43.062;25.626;2022-08-19T01:10:31;4.95;;;4.00;;
68384;SDS011;55336;43.062;25.626;2022-08-19T01:13:01;3.75;;;2.92;;
68384;SDS011;55336;43.062;25.626;2022-08-19T01:15:32;5.10;;;4.18;;
68384;SDS011;55336;43.062;25.626;2022-08-19T01:18:08;2.88;;;2.67;;
68384;SDS011;55336;43.062;25.626;2022-08-19T01:20:37;3.50;;;3.20;;
68384;SDS011;55336;43.062;25.626;2022-08-19T01:23:05;3.78;;;3.38;;
68384;SDS011;55336;43.062;25.626;2022-08-19T01:25:32;3.25;;;3.05;;
68384;SDS011;55336;43.062;25.626;2022-08-19T01:28:06;3.75;;;3.45;;
68384;SDS011;55336;43.062;25.626;2022-08-19T01:30:33;4.28;;;3.63;;
68384;SDS011;55336;43.062;25.626;2022-08-19T01:33:00;4.63;;;4.03;;
68384;SDS011;55336;43.062;25.626;2022-08-19T01:35:29;4.70;;;4.28;;
68384;SDS011;55336;43.062;25.626;2022-08-19T01:37:58;4.15;;;3.75;;
68384;SDS011;55336;43.062;25.626;2022-08-19T01:40:27;5.78;;;4.13;;
68384;SDS011;55336;43.062;25.626;2022-08-19T01:42:56;4.07;;;3.70;;
68384;SDS011;55336;43.062;25.626;2022-08-19T01:45:23;3.60;;;3.30;;
68384;SDS011;55336;43.062;25.626;2022-08-19T01:47:50;4.68;;;4.28;;
68384;SDS011;55336;43.062;25.626;2022-08-19T01:50:17;6.32;;;4.40;;
68384;SDS011;55336;43.062;25.626;2022-08-19T01:55:13;4.90;;;3.87;;
68384;SDS011;55336;43.062;25.626;2022-08-19T01:57:42;4.68;;;4.18;;
68384;SDS011;55336;43.062;25.626;2022-08-19T02:00:11;4.03;;;3.72;;
68384;SDS011;55336;43.062;25.626;2022-08-19T02:02:40;4.15;;;3.75;;
68384;SDS011;55336;43.062;25.626;2022-08-19T02:05:07;4.63;;;4.18;;
68384;SDS011;55336;43.062;25.626;2022-08-19T02:07:33;5.18;;;4.57;;
68384;SDS011;55336;43.062;25.626;2022-08-19T02:10:06;4.40;;;4.00;;
68384;SDS011;55336;43.062;25.626;2022-08-19T02:12:34;4.70;;;4.07;;
68384;SDS011;55336;43.062;25.626;2022-08-19T02:15:00;5.80;;;4.05;;
68384;SDS011;55336;43.062;25.626;2022-08-19T02:17:27;6.13;;;4.72;;
68384;SDS011;55336;43.062;25.626;2022-08-19T02:19:57;4.50;;;4.10;;
68384;SDS011;55336;43.062;25.626;2022-08-19T02:22:23;4.03;;;3.63;;
68384;SDS011;55336;43.062;25.626;2022-08-19T02:24:53;3.78;;;3.33;;
68384;SDS011;55336;43.062;25.626;2022-08-19T02:27:20;5.22;;;4.30;;
68384;SDS011;55336;43.062;25.626;2022-08-19T02:29:47;4.95;;;4.03;;
68384;SDS011;55336;43.062;25.626;2022-08-19T02:32:15;3.67;;;3.33;;
68384;SDS011;55336;43.062;25.626;2022-08-19T02:34:41;6.13;;;3.92;;
68384;SDS011;55336;43.062;25.626;2022-08-19T02:37:07;5.82;;;3.35;;
68384;SDS011;55336;43.062;25.626;2022-08-19T02:39:53;4.70;;;4.00;;
68384;SDS011;55336;43.062;25.626;2022-08-19T02:42:19;4.65;;;3.90;;
68384;SDS011;55336;43.062;25.626;2022-08-19T02:44:45;4.43;;;4.03;;
68384;SDS011;55336;43.062;25.626;2022-08-19T02:47:11;4.57;;;3.65;;
68384;SDS011;55336;43.062;25.626;2022-08-19T02:49:38;6.00;;;2.90;;
68384;SDS011;55336;43.062;25.626;2022-08-19T02:52:04;6.75;;;4.35;;
68384;SDS011;55336;43.062;25.626;2022-08-19T02:54:30;5.45;;;4.25;;
68384;SDS011;55336;43.062;25.626;2022-08-19T02:56:56;6.38;;;3.95;;
68384;SDS011;55336;43.062;25.626;2022-08-19T02:59:21;4.22;;;3.83;;
68384;SDS011;55336;43.062;25.626;2022-08-19T03:01:47;3.25;;;2.95;;
68384;SDS011;55336;43.062;25.626;2022-08-19T03:04:14;3.50;;;3.20;;
68384;SDS011;55336;43.062;25.626;2022-08-19T03:06:43;4.88;;;3.83;;
68384;SDS011;55336;43.062;25.626;2022-08-19T03:09:10;4.70;;;4.20;;
68384;SDS011;55336;43.062;25.626;2022-08-19T03:11:37;4.35;;;3.95;;
68384;SDS011;55336;43.062;25.626;2022-08-19T03:14:04;3.92;;;3.53;;
68384;SDS011;55336;43.062;25.626;2022-08-19T03:16:32;8.77;;;3.80;;
68384;SDS011;55336;43.062;25.626;2022-08-19T03:19:00;3.15;;;2.95;;
68384;SDS011;55336;43.062;25.626;2022-08-19T03:21:27;4.22;;;3.83;;
68384;SDS011;55336;43.062;25.626;2022-08-19T03:23:57;3.22;;;2.92;;
68384;SDS011;55336;43.062;25.626;2022-08-19T03:26:23;5.00;;;3.63;;
68384;SDS011;55336;43.062;25.626;2022-08-19T03:28:51;4.07;;;3.78;;
68384;SDS011;55336;43.062;25.626;2022-08-19T03:31:18;5.25;;;4.60;;
68384;SDS011;55336;43.062;25.626;2022-08-19T03:33:46;4.35;;;3.95;;
68384;SDS011;55336;43.062;25.626;2022-08-19T03:36:14;11.63;;;3.88;;
68384;SDS011;55336;43.062;25.626;2022-08-19T03:38:51;5.13;;;3.80;;
68384;SDS011;55336;43.062;25.626;2022-08-19T03:41:31;2.75;;;2.55;;
68384;SDS011;55336;43.062;25.626;2022-08-19T03:44:02;3.35;;;3.13;;
68384;SDS011;55336;43.062;25.626;2022-08-19T03:46:30;4.18;;;3.78;;
68384;SDS011;55336;43.062;25.626;2022-08-19T03:48:58;7.47;;;4.43;;
68384;SDS011;55336;43.062;25.626;2022-08-19T03:51:30;4.60;;;3.58;;
68384;SDS011;55336;43.062;25.626;2022-08-19T03:53:59;4.72;;;3.47;;
68384;SDS011;55336;43.062;25.626;2022-08-19T03:56:27;10.32;;;4.18;;
68384;SDS011;55336;43.062;25.626;2022-08-19T03:58:54;4.55;;;4.13;;
68384;SDS011;55336;43.062;25.626;2022-08-19T04:01:22;5.07;;;3.97;;
68384;SDS011;55336;43.062;25.626;2022-08-19T04:03:51;9.70;;;3.92;;
68384;SDS011;55336;43.062;25.626;2022-08-19T04:06:37;4.18;;;3.83;;
68384;SDS011;55336;43.062;25.626;2022-08-19T04:09:04;3.72;;;3.42;;
68384;SDS011;55336;43.062;25.626;2022-08-19T04:11:40;6.45;;;3.85;;
68384;SDS011;55336;43.062;25.626;2022-08-19T04:14:09;7.30;;;3.47;;
68384;SDS011;55336;43.062;25.626;2022-08-19T04:16:37;4.35;;;3.78;;
68384;SDS011;55336;43.062;25.626;2022-08-19T04:19:03;4.03;;;3.65;;
68384;SDS011;55336;43.062;25.626;2022-08-19T04:21:30;5.55;;;4.10;;
68384;SDS011;55336;43.062;25.626;2022-08-19T04:26:24;3.83;;;3.43;;
68384;SDS011;55336;43.062;25.626;2022-08-19T04:28:52;3.33;;;3.03;;
68384;SDS011;55336;43.062;25.626;2022-08-19T04:31:23;4.55;;;3.72;;
68384;SDS011;55336;43.062;25.626;2022-08-19T04:33:55;5.07;;;3.78;;
68384;SDS011;55336;43.062;25.626;2022-08-19T04:36:24;3.55;;;3.33;;
68384;SDS011;55336;43.062;25.626;2022-08-19T04:38:56;5.72;;;4.47;;
68384;SDS011;55336;43.062;25.626;2022-08-19T04:41:23;10.40;;;4.05;;
68384;SDS011;55336;43.062;25.626;2022-08-19T04:44:09;8.55;;;4.25;;
68384;SDS011;55336;43.062;25.626;2022-08-19T04:46:36;3.40;;;3.10;;
68384;SDS011;55336;43.062;25.626;2022-08-19T04:49:02;5.72;;;4.07;;
68384;SDS011;55336;43.062;25.626;2022-08-19T04:51:30;6.20;;;4.90;;
68384;SDS011;55336;43.062;25.626;2022-08-19T04:53:57;7.82;;;4.43;;
68384;SDS011;55336;43.062;25.626;2022-08-19T04:56:25;6.43;;;5.82;;
68384;SDS011;55336;43.062;25.626;2022-08-19T04:58:51;12.05;;;8.65;;
68384;SDS011;55336;43.062;25.626;2022-08-19T05:01:20;13.75;;;8.85;;
68384;SDS011;55336;43.062;25.626;2022-08-19T05:03:48;8.70;;;6.85;;
68384;SDS011;55336;43.062;25.626;2022-08-19T05:06:15;8.70;;;7.88;;
68384;SDS011;55336;43.062;25.626;2022-08-19T05:08:43;12.45;;;8.70;;
68384;SDS011;55336;43.062;25.626;2022-08-19T05:11:11;8.25;;;7.38;;
68384;SDS011;55336;43.062;25.626;2022-08-19T05:13:37;8.48;;;7.47;;
68384;SDS011;55336;43.062;25.626;2022-08-19T05:16:04;10.60;;;8.38;;
68384;SDS011;55336;43.062;25.626;2022-08-19T05:18:30;8.65;;;7.70;;
68384;SDS011;55336;43.062;25.626;2022-08-19T05:21:16;9.13;;;7.80;;
68384;SDS011;55336;43.062;25.626;2022-08-19T05:24:02;11.07;;;9.10;;
68384;SDS011;55336;43.062;25.626;2022-08-19T05:26:32;11.65;;;9.63;;
68384;SDS011;55336;43.062;25.626;2022-08-19T05:28:58;10.48;;;9.18;;
68384;SDS011;55336;43.062;25.626;2022-08-19T05:31:24;11.43;;;8.18;;
68384;SDS011;55336;43.062;25.626;2022-08-19T05:33:50;19.77;;;8.27;;
68384;SDS011;55336;43.062;25.626;2022-08-19T05:38:41;7.43;;;6.63;;
68384;SDS011;55336;43.062;25.626;2022-08-19T05:43:37;8.32;;;7.32;;
68384;SDS011;55336;43.062;25.626;2022-08-19T05:46:03;6.05;;;5.47;;
68384;SDS011;55336;43.062;25.626;2022-08-19T05:48:31;7.57;;;4.63;;
68384;SDS011;55336;43.062;25.626;2022-08-19T05:51:02;5.45;;;4.95;;
68384;SDS011;55336;43.062;25.626;2022-08-19T05:53:32;15.10;;;5.30;;
68384;SDS011;55336;43.062;25.626;2022-08-19T05:56:03;5.30;;;4.80;;
68384;SDS011;55336;43.062;25.626;2022-08-19T05:58:33;7.38;;;5.03;;
68384;SDS011;55336;43.062;25.626;2022-08-19T06:01:00;4.55;;;4.15;;
68384;SDS011;55336;43.062;25.626;2022-08-19T06:03:32;6.13;;;5.53;;
68384;SDS011;55336;43.062;25.626;2022-08-19T06:05:59;4.97;;;3.53;;
68384;SDS011;55336;43.062;25.626;2022-08-19T06:10:52;2.53;;;2.33;;
68384;SDS011;55336;43.062;25.626;2022-08-19T06:13:18;5.18;;;4.10;;
68384;SDS011;55336;43.062;25.626;2022-08-19T06:18:11;4.93;;;4.32;;
68384;SDS011;55336;43.062;25.626;2022-08-19T06:20:39;4.68;;;4.28;;
68384;SDS011;55336;43.062;25.626;2022-08-19T06:23:05;5.75;;;5.22;;
68384;SDS011;55336;43.062;25.626;2022-08-19T06:27:57;4.28;;;3.88;;
68384;SDS011;55336;43.062;25.626;2022-08-19T06:30:23;4.43;;;4.03;;
68384;SDS011;55336;43.062;25.626;2022-08-19T06:32:49;5.30;;;3.95;;
68384;SDS011;55336;43.062;25.626;2022-08-19T06:35:15;4.13;;;3.83;;
68384;SDS011;55336;43.062;25.626;2022-08-19T06:37:40;3.95;;;3.60;;
68384;SDS011;55336;43.062;25.626;2022-08-19T06:40:08;4.28;;;3.53;;
68384;SDS011;55336;43.062;25.626;2022-08-19T06:42:35;2.72;;;2.50;;
68384;SDS011;55336;43.062;25.626;2022-08-19T06:45:03;6.47;;;3.28;;
68384;SDS011;55336;43.062;25.626;2022-08-19T06:47:31;4.30;;;2.83;;
68384;SDS011;55336;43.062;25.626;2022-08-19T06:49:58;4.78;;;3.83;;
68384;SDS011;55336;43.062;25.626;2022-08-19T06:52:32;5.13;;;3.92;;
68384;SDS011;55336;43.062;25.626;2022-08-19T06:54:59;3.83;;;3.42;;
68384;SDS011;55336;43.062;25.626;2022-08-19T06:57:26;3.97;;;3.33;;
68384;SDS011;55336;43.062;25.626;2022-08-19T06:59:52;2.67;;;2.45;;
68384;SDS011;55336;43.062;25.626;2022-08-19T07:02:18;3.40;;;3.10;;
68384;SDS011;55336;43.062;25.626;2022-08-19T07:04:45;2.70;;;1.60;;
68384;SDS011;55336;43.062;25.626;2022-08-19T07:07:12;2.17;;;2.08;;
68384;SDS011;55336;43.062;25.626;2022-08-19T07:09:41;4.63;;;1.77;;
68384;SDS011;55336;43.062;25.626;2022-08-19T07:12:09;2.25;;;2.15;;
68384;SDS011;55336;43.062;25.626;2022-08-19T07:14:37;4.32;;;3.15;;
68384;SDS011;55336;43.062;25.626;2022-08-19T07:17:04;3.03;;;2.72;;
68384;SDS011;55336;43.062;25.626;2022-08-19T07:19:32;4.38;;;2.90;;
68384;SDS011;55336;43.062;25.626;2022-08-19T07:22:00;2.88;;;2.03;;
68384;SDS011;55336;43.062;25.626;2022-08-19T07:24:28;2.50;;;2.30;;
68384;SDS011;55336;43.062;25.626;2022-08-19T07:26:55;2.47;;;2.30;;
68384;SDS011;55336;43.062;25.626;2022-08-19T07:29:26;5.30;;;2.53;;
68384;SDS011;55336;43.062;25.626;2022-08-19T07:31:54;2.50;;;2.00;;
68384;SDS011;55336;43.062;25.626;2022-08-19T07:34:22;1.98;;;1.88;;
68384;SDS011;55336;43.062;25.626;2022-08-19T07:36:49;2.15;;;1.95;;
68384;SDS011;55336;43.062;25.626;2022-08-19T07:39:17;1.77;;;1.67;;
68384;SDS011;55336;43.062;25.626;2022-08-19T07:41:45;1.98;;;1.88;;
68384;SDS011;55336;43.062;25.626;2022-08-19T07:44:11;3.38;;;2.42;;
68384;SDS011;55336;43.062;25.626;2022-08-19T07:46:39;2.08;;;1.88;;
68384;SDS011;55336;43.062;25.626;2022-08-19T07:49:09;2.55;;;2.13;;
68384;SDS011;55336;43.062;25.626;2022-08-19T07:52:06;6.90;;;2.08;;
68384;SDS011;55336;43.062;25.626;2022-08-19T07:54:32;2.55;;;2.00;;
68384;SDS011;55336;43.062;25.626;2022-08-19T07:57:00;1.77;;;1.67;;
68384;SDS011;55336;43.062;25.626;2022-08-19T07:59:26;6.65;;;2.50;;
68384;SDS011;55336;43.062;25.626;2022-08-19T08:01:54;1.83;;;1.73;;
68384;SDS011;55336;43.062;25.626;2022-08-19T08:04:21;2.42;;;2.22;;
68384;SDS011;55336;43.062;25.626;2022-08-19T08:07:06;1.63;;;1.50;;
68384;SDS011;55336;43.062;25.626;2022-08-19T08:09:52;2.08;;;1.88;;
68384;SDS011;55336;43.062;25.626;2022-08-19T08:12:22;1.85;;;1.67;;
68384;SDS011;55336;43.062;25.626;2022-08-19T08:14:55;2.10;;;1.95;;
68384;SDS011;55336;43.062;25.626;2022-08-19T08:17:25;6.03;;;2.15;;
68384;SDS011;55336;43.062;25.626;2022-08-19T08:19:54;0.98;;;0.98;;
68384;SDS011;55336;43.062;25.626;2022-08-19T08:22:21;2.10;;;1.95;;
68384;SDS011;55336;43.062;25.626;2022-08-19T08:25:07;2.13;;;2.03;;
68384;SDS011;55336;43.062;25.626;2022-08-19T08:27:43;2.08;;;1.90;;
68384;SDS011;55336;43.062;25.626;2022-08-19T08:30:15;1.83;;;1.70;;
68384;SDS011;55336;43.062;25.626;2022-08-19T08:32:43;2.50;;;2.30;;
68384;SDS011;55336;43.062;25.626;2022-08-19T08:35:10;2.42;;;2.20;;
68384;SDS011;55336;43.062;25.626;2022-08-19T08:37:39;3.65;;;1.63;;
68384;SDS011;55336;43.062;25.626;2022-08-19T08:40:27;7.60;;;2.83;;
68384;SDS011;55336;43.062;25.626;2022-08-19T08:42:57;2.20;;;1.80;;
68384;SDS011;55336;43.062;25.626;2022-08-19T08:45:47;2.28;;;2.08;;
68384;SDS011;55336;43.062;25.626;2022-08-19T08:48:44;2.13;;;2.03;;
68384;SDS011;55336;43.062;25.626;2022-08-19T08:54:44;2.53;;;2.33;;
68384;SDS011;55336;43.062;25.626;2022-08-19T08:57:13;1.45;;;1.35;;
68384;SDS011;55336;43.062;25.626;2022-08-19T08:59:45;1.95;;;1.85;;
68384;SDS011;55336;43.062;25.626;2022-08-19T09:02:17;2.70;;;2.17;;
68384;SDS011;55336;43.062;25.626;2022-08-19T09:04:44;1.75;;;1.65;;
68384;SDS011;55336;43.062;25.626;2022-08-19T09:10:01;1.95;;;1.85;;
68384;SDS011;55336;43.062;25.626;2022-08-19T09:15:34;2.25;;;2.05;;
68384;SDS011;55336;43.062;25.626;2022-08-19T09:18:06;2.63;;;2.10;;
68384;SDS011;55336;43.062;25.626;2022-08-19T09:20:34;1.73;;;1.63;;
68384;SDS011;55336;43.062;25.626;2022-08-19T09:22:59;1.70;;;1.60;;
68384;SDS011;55336;43.062;25.626;2022-08-19T09:25:26;1.75;;;1.65;;
68384;SDS011;55336;43.062;25.626;2022-08-19T09:27:52;1.73;;;1.63;;
68384;SDS011;55336;43.062;25.626;2022-08-19T09:30:25;2.10;;;2.00;;
68384;SDS011;55336;43.062;25.626;2022-08-19T09:32:52;1.83;;;1.73;;
68384;SDS011;55336;43.062;25.626;2022-08-19T09:35:23;1.92;;;1.80;;
68384;SDS011;55336;43.062;25.626;2022-08-19T09:37:52;2.08;;;1.98;;
68384;SDS011;55336;43.062;25.626;2022-08-19T09:40:18;1.85;;;1.73;;
68384;SDS011;55336;43.062;25.626;2022-08-19T09:42:45;1.23;;;1.23;;
68384;SDS011;55336;43.062;25.626;2022-08-19T09:45:13;1.55;;;1.45;;
68384;SDS011;55336;43.062;25.626;2022-08-19T09:47:39;1.85;;;1.73;;
68384;SDS011;55336;43.062;25.626;2022-08-19T09:50:07;1.58;;;1.48;;
68384;SDS011;55336;43.062;25.626;2022-08-19T09:52:34;1.40;;;1.30;;
68384;SDS011;55336;43.062;25.626;2022-08-19T09:55:04;7.85;;;2.63;;
68384;SDS011;55336;43.062;25.626;2022-08-19T09:57:31;1.67;;;1.58;;
68384;SDS011;55336;43.062;25.626;2022-08-19T09:59:57;1.70;;;1.60;;
68384;SDS011;55336;43.062;25.626;2022-08-19T10:02:23;1.67;;;1.58;;
68384;SDS011;55336;43.062;25.626;2022-08-19T10:04:50;2.08;;;1.92;;
68384;SDS011;55336;43.062;25.626;2022-08-19T10:07:34;1.63;;;1.52;;
68384;SDS011;55336;43.062;25.626;2022-08-19T10:10:01;1.67;;;1.58;;
68384;SDS011;55336;43.062;25.626;2022-08-19T10:12:28;2.85;;;1.58;;
68384;SDS011;55336;43.062;25.626;2022-08-19T10:14:53;0.82;;;0.82;;
68384;SDS011;55336;43.062;25.626;2022-08-19T10:17:19;1.65;;;1.40;;
68384;SDS011;55336;43.062;25.626;2022-08-19T10:19:45;5.07;;;1.90;;
68384;SDS011;55336;43.062;25.626;2022-08-19T10:22:12;2.05;;;1.73;;
68384;SDS011;55336;43.062;25.626;2022-08-19T10:24:38;2.20;;;2.00;;
68384;SDS011;55336;43.062;25.626;2022-08-19T10:27:04;1.58;;;1.48;;
68384;SDS011;55336;43.062;25.626;2022-08-19T10:29:31;1.65;;;1.55;;
68384;SDS011;55336;43.062;25.626;2022-08-19T10:32:03;2.13;;;1.70;;
68384;SDS011;55336;43.062;25.626;2022-08-19T10:34:32;2.33;;;1.88;;
68384;SDS011;55336;43.062;25.626;2022-08-19T10:37:01;4.55;;;2.10;;
68384;SDS011;55336;43.062;25.626;2022-08-19T10:39:31;3.03;;;2.17;;
68384;SDS011;55336;43.062;25.626;2022-08-19T10:41:59;2.10;;;1.98;;
68384;SDS011;55336;43.062;25.626;2022-08-19T10:44:29;1.45;;;1.35;;
68384;SDS011;55336;43.062;25.626;2022-08-19T10:46:55;2.60;;;1.90;;
68384;SDS011;55336;43.062;25.626;2022-08-19T10:49:21;2.30;;;2.10;;
68384;SDS011;55336;43.062;25.626;2022-08-19T10:51:49;2.35;;;2.15;;
68384;SDS011;55336;43.062;25.626;2022-08-19T10:54:33;2.30;;;2.05;;
68384;SDS011;55336;43.062;25.626;2022-08-19T10:57:17;4.03;;;2.63;;
68384;SDS011;55336;43.062;25.626;2022-08-19T10:59:43;1.83;;;1.73;;
68384;SDS011;55336;43.062;25.626;2022-08-19T11:02:10;2.00;;;1.90;;
68384;SDS011;55336;43.062;25.626;2022-08-19T11:04:38;1.60;;;1.50;;
68384;SDS011;55336;43.062;25.626;2022-08-19T11:07:05;2.08;;;1.95;;
68384;SDS011;55336;43.062;25.626;2022-08-19T11:09:35;2.20;;;2.00;;
68384;SDS011;55336;43.062;25.626;2022-08-19T11:12:04;1.70;;;1.60;;
68384;SDS011;55336;43.062;25.626;2022-08-19T11:14:30;2.17;;;2.08;;
68384;SDS011;55336;43.062;25.626;2022-08-19T11:16:57;1.15;;;1.15;;
68384;SDS011;55336;43.062;25.626;2022-08-19T11:19:23;1.90;;;1.80;;
68384;SDS011;55336;43.062;25.626;2022-08-19T11:21:50;1.52;;;1.42;;
68384;SDS011;55336;43.062;25.626;2022-08-19T11:24:18;1.83;;;1.73;;
68384;SDS011;55336;43.062;25.626;2022-08-19T11:26:50;1.92;;;1.83;;
68384;SDS011;55336;43.062;25.626;2022-08-19T11:29:18;1.63;;;1.52;;
68384;SDS011;55336;43.062;25.626;2022-08-19T11:31:45;1.70;;;1.60;;
68384;SDS011;55336;43.062;25.626;2022-08-19T11:34:15;1.83;;;1.73;;
68384;SDS011;55336;43.062;25.626;2022-08-19T11:36:44;1.67;;;1.58;;
68384;SDS011;55336;43.062;25.626;2022-08-19T11:39:12;2.63;;;2.42;;
68384;SDS011;55336;43.062;25.626;2022-08-19T11:41:40;1.85;;;1.75;;
68384;SDS011;55336;43.062;25.626;2022-08-19T11:44:06;1.75;;;1.65;;
68384;SDS011;55336;43.062;25.626;2022-08-19T11:46:33;2.08;;;1.98;;
68384;SDS011;55336;43.062;25.626;2022-08-19T11:49:01;1.77;;;1.67;;
68384;SDS011;55336;43.062;25.626;2022-08-19T11:51:29;2.15;;;2.00;;
68384;SDS011;55336;43.062;25.626;2022-08-19T11:53:56;4.10;;;2.63;;
68384;SDS011;55336;43.062;25.626;2022-08-19T11:56:23;1.77;;;1.67;;
68384;SDS011;55336;43.062;25.626;2022-08-19T11:58:50;3.58;;;2.28;;
68384;SDS011;55336;43.062;25.626;2022-08-19T12:01:18;1.92;;;1.73;;
68384;SDS011;55336;43.062;25.626;2022-08-19T12:03:45;4.40;;;2.25;;
68384;SDS011;55336;43.062;25.626;2022-08-19T12:06:14;1.75;;;1.25;;
68384;SDS011;55336;43.062;25.626;2022-08-19T12:08:42;1.85;;;1.75;;
68384;SDS011;55336;43.062;25.626;2022-08-19T12:11:09;1.48;;;1.38;;
68384;SDS011;55336;43.062;25.626;2022-08-19T12:13:36;1.20;;;1.10;;
68384;SDS011;55336;43.062;25.626;2022-08-19T12:16:09;25.83;;;2.33;;
68384;SDS011;55336;43.062;25.626;2022-08-19T12:18:37;1.77;;;1.67;;
68384;SDS011;55336;43.062;25.626;2022-08-19T12:21:06;1.40;;;1.33;;
68384;SDS011;55336;43.062;25.626;2022-08-19T12:23:32;2.08;;;1.98;;
68384;SDS011;55336;43.062;25.626;2022-08-19T12:25:57;1.08;;;1.08;;
68384;SDS011;55336;43.062;25.626;2022-08-19T12:28:24;1.50;;;1.40;;
68384;SDS011;55336;43.062;25.626;2022-08-19T12:30:51;2.75;;;1.98;;
68384;SDS011;55336;43.062;25.626;2022-08-19T12:33:17;1.38;;;1.27;;
68384;SDS011;55336;43.062;25.626;2022-08-19T12:35:45;1.20;;;1.17;;
68384;SDS011;55336;43.062;25.626;2022-08-19T12:38:12;1.27;;;1.17;;
68384;SDS011;55336;43.062;25.626;2022-08-19T12:40:39;1.52;;;1.40;;
68384;SDS011;55336;43.062;25.626;2022-08-19T12:43:09;1.02;;;1.02;;
68384;SDS011;55336;43.062;25.626;2022-08-19T12:45:36;1.63;;;1.52;;
68384;SDS011;55336;43.062;25.626;2022-08-19T12:48:03;1.83;;;1.73;;
68384;SDS011;55336;43.062;25.626;2022-08-19T12:50:29;1.30;;;1.23;;
68384;SDS011;55336;43.062;25.626;2022-08-19T12:52:56;1.13;;;1.13;;
68384;SDS011;55336;43.062;25.626;2022-08-19T12:55:22;2.70;;;1.50;;
68384;SDS011;55336;43.062;25.626;2022-08-19T12:57:53;1.95;;;1.48;;
68384;SDS011;55336;43.062;25.626;2022-08-19T13:00:24;0.98;;;0.98;;
68384;SDS011;55336;43.062;25.626;2022-08-19T13:02:51;0.80;;;0.80;;
68384;SDS011;55336;43.062;25.626;2022-08-19T13:05:23;0.95;;;0.93;;
68384;SDS011;55336;43.062;25.626;2022-08-19T13:07:51;0.88;;;0.75;;
68384;SDS011;55336;43.062;25.626;2022-08-19T13:10:21;0.90;;;0.90;;
68384;SDS011;55336;43.062;25.626;2022-08-19T13:12:48;1.15;;;1.05;;
68384;SDS011;55336;43.062;25.626;2022-08-19T13:15:19;1.17;;;1.13;;
68384;SDS011;55336;43.062;25.626;2022-08-19T13:17:52;1.23;;;1.13;;
68384;SDS011;55336;43.062;25.626;2022-08-19T13:20:19;1.13;;;1.05;;
68384;SDS011;55336;43.062;25.626;2022-08-19T13:22:46;1.50;;;1.38;;
68384;SDS011;55336;43.062;25.626;2022-08-19T13:25:13;2.13;;;1.70;;
68384;SDS011;55336;43.062;25.626;2022-08-19T13:27:46;1.67;;;1.58;;
68384;SDS011;55336;43.062;25.626;2022-08-19T13:30:15;0.80;;;0.80;;
68384;SDS011;55336;43.062;25.626;2022-08-19T13:33:08;1.05;;;0.85;;
68384;SDS011;55336;43.062;25.626;2022-08-19T13:35:40;1.33;;;1.23;;
68384;SDS011;55336;43.062;25.626;2022-08-19T13:38:13;1.40;;;1.20;;
68384;SDS011;55336;43.062;25.626;2022-08-19T13:40:43;1.33;;;1.17;;
68384;SDS011;55336;43.062;25.626;2022-08-19T13:43:12;1.35;;;1.15;;
68384;SDS011;55336;43.062;25.626;2022-08-19T13:45:40;1.13;;;1.05;;
68384;SDS011;55336;43.062;25.626;2022-08-19T13:48:06;0.93;;;0.93;;
68384;SDS011;55336;43.062;25.626;2022-08-19T13:50:34;1.35;;;1.25;;
68384;SDS011;55336;43.062;25.626;2022-08-19T13:53:06;1.30;;;1.30;;
68384;SDS011;55336;43.062;25.626;2022-08-19T13:55:33;1.30;;;1.23;;
68384;SDS011;55336;43.062;25.626;2022-08-19T13:57:59;1.02;;;1.02;;
68384;SDS011;55336;43.062;25.626;2022-08-19T14:00:27;0.82;;;0.82;;
68384;SDS011;55336;43.062;25.626;2022-08-19T14:02:55;1.48;;;1.38;;
68384;SDS011;55336;43.062;25.626;2022-08-19T14:05:23;0.85;;;0.85;;
68384;SDS011;55336;43.062;25.626;2022-08-19T14:07:50;2.05;;;1.20;;
68384;SDS011;55336;43.062;25.626;2022-08-19T14:10:17;1.40;;;1.30;;
68384;SDS011;55336;43.062;25.626;2022-08-19T14:12:44;2.05;;;1.05;;
68384;SDS011;55336;43.062;25.626;2022-08-19T14:15:10;1.15;;;1.15;;
68384;SDS011;55336;43.062;25.626;2022-08-19T14:17:38;1.35;;;1.25;;
68384;SDS011;55336;43.062;25.626;2022-08-19T14:20:06;0.63;;;0.63;;
68384;SDS011;55336;43.062;25.626;2022-08-19T14:22:35;1.23;;;1.13;;
68384;SDS011;55336;43.062;25.626;2022-08-19T14:25:02;1.73;;;1.63;;
68384;SDS011;55336;43.062;25.626;2022-08-19T14:27:30;1.30;;;1.20;;
68384;SDS011;55336;43.062;25.626;2022-08-19T14:30:01;1.80;;;1.63;;
68384;SDS011;55336;43.062;25.626;2022-08-19T14:32:32;1.55;;;1.45;;
68384;SDS011;55336;43.062;25.626;2022-08-19T14:34:59;1.65;;;1.17;;
68384;SDS011;55336;43.062;25.626;2022-08-19T14:37:25;1.60;;;1.50;;
68384;SDS011;55336;43.062;25.626;2022-08-19T14:39:51;0.93;;;0.93;;
68384;SDS011;55336;43.062;25.626;2022-08-19T14:42:18;2.50;;;1.25;;
68384;SDS011;55336;43.062;25.626;2022-08-19T14:44:44;1.40;;;1.35;;
68384;SDS011;55336;43.062;25.626;2022-08-19T14:47:10;1.45;;;1.30;;
68384;SDS011;55336;43.062;25.626;2022-08-19T14:49:36;1.27;;;1.25;;
68384;SDS011;55336;43.062;25.626;2022-08-19T14:52:04;1.15;;;1.05;;
68384;SDS011;55336;43.062;25.626;2022-08-19T14:54:30;0.55;;;0.55;;
68384;SDS011;55336;43.062;25.626;2022-08-19T14:56:56;2.20;;;1.33;;
68384;SDS011;55336;43.062;25.626;2022-08-19T14:59:22;1.02;;;1.02;;
68384;SDS011;55336;43.062;25.626;2022-08-19T15:01:49;2.28;;;1.25;;
68384;SDS011;55336;43.062;25.626;2022-08-19T15:04:15;1.25;;;1.15;;
68384;SDS011;55336;43.062;25.626;2022-08-19T15:06:41;0.90;;;0.90;;
68384;SDS011;55336;43.062;25.626;2022-08-19T15:09:07;1.45;;;1.30;;
68384;SDS011;55336;43.062;25.626;2022-08-19T15:11:34;0.77;;;0.77;;
68384;SDS011;55336;43.062;25.626;2022-08-19T15:14:00;1.20;;;1.10;;